createdAt,value
2023-02-24T00:00:32.056Z,93.54
2023-02-24T00:03:13.656Z,93.56
2023-02-24T00:05:49.959Z,93.63
2023-02-24T00:08:18.378Z,93.67
2023-02-24T00:10:47.835Z,93.64
2023-02-24T00:13:22.327Z,93.52
2023-02-24T00:16:02.861Z,93.34
2023-02-24T00:18:32.722Z,93.35
2023-02-24T00:21:08.355Z,93.24
2023-02-24T00:23:38.349Z,93.14
2023-02-24T00:26:10.345Z,93.25
2023-02-24T00:28:39.114Z,93.25
2023-02-24T00:31:14.475Z,93.07
2023-02-24T00:33:45.801Z,93.03
2023-02-24T00:36:23.995Z,93.02
2023-02-24T00:38:56.273Z,93.19
2023-02-24T00:41:31.494Z,93.29
2023-02-24T00:44:07.412Z,93.55
2023-02-24T00:46:42.546Z,93.72
2023-02-24T00:49:17.649Z,93.99
2023-02-24T00:51:49.318Z,94.17
2023-02-24T00:54:17.682Z,94.68
2023-02-24T00:56:48.573Z,94.95
2023-02-24T00:59:23.037Z,95.14
2023-02-24T01:01:52.328Z,95.20
2023-02-24T01:04:21.922Z,95.45
2023-02-24T01:07:00.132Z,95.60
2023-02-24T01:09:32.139Z,95.80
2023-02-24T01:12:19.213Z,95.94
2023-02-24T01:14:51.297Z,96.04
2023-02-24T01:17:21.766Z,96.09
2023-02-24T01:19:50.455Z,96.03
2023-02-24T01:22:21.351Z,96.06
2023-02-24T01:24:49.815Z,96.03
2023-02-24T01:27:19.389Z,96.10
2023-02-24T01:29:48.941Z,96.27
2023-02-24T01:32:21.494Z,96.35
2023-02-24T01:34:53.344Z,96.55
2023-02-24T01:37:21.976Z,96.51
2023-02-24T01:39:50.740Z,96.62
2023-02-24T01:42:22.312Z,96.57
2023-02-24T01:44:51.973Z,96.63
2023-02-24T01:47:21.484Z,96.71
2023-02-24T01:49:54.764Z,96.88
2023-02-24T01:52:37.810Z,96.83
2023-02-24T01:55:24.570Z,97.06
2023-02-24T01:57:54.109Z,97.18
2023-02-24T02:00:38.334Z,97.17
2023-02-24T02:03:25.593Z,97.22
2023-02-24T02:06:01.334Z,97.34
2023-02-24T02:08:30.651Z,97.47
2023-02-24T02:11:06.419Z,97.63
2023-02-24T02:13:38.071Z,97.60
2023-02-24T02:16:21.065Z,97.41
2023-02-24T02:19:36.202Z,97.41
2023-02-24T02:22:23.549Z,97.69
2023-02-24T02:25:01.582Z,97.67
2023-02-24T02:28:04.334Z,97.59
2023-02-24T02:31:04.168Z,97.76
2023-02-24T02:34:02.961Z,97.90
2023-02-24T02:37:14.920Z,98.13
2023-02-24T02:40:37.669Z,98.35
2023-02-24T02:43:25.916Z,98.60
2023-02-24T02:46:14.919Z,98.54
2023-02-24T02:48:58.195Z,98.69
2023-02-24T02:51:38.862Z,98.74
2023-02-24T02:54:22.465Z,98.76
2023-02-24T02:56:59.602Z,98.98
2023-02-24T02:59:31.870Z,99.20
2023-02-24T03:02:11.654Z,99.34
2023-02-24T03:04:46.718Z,99.63
2023-02-24T03:07:17.857Z,99.67
2023-02-24T03:09:56.307Z,99.66
2023-02-24T03:12:30.622Z,99.68
2023-02-24T03:15:04.586Z,99.74
2023-02-24T03:17:40.893Z,99.91
2023-02-24T03:20:29.352Z,99.86
2023-02-24T03:23:25.733Z,99.96
2023-02-24T03:26:06.143Z,100.00
2023-02-24T03:28:48.820Z,100.00
2023-02-24T03:31:27.764Z,100.00
2023-02-24T03:34:15.889Z,100.00
2023-02-24T03:36:44.551Z,100.00
2023-02-24T03:39:13.273Z,100.00
2023-02-24T03:42:01.267Z,100.00
2023-02-24T03:44:30.505Z,100.00
2023-02-24T03:46:58.904Z,100.00
2023-02-24T03:49:28.216Z,100.00
2023-02-24T03:52:29.137Z,100.00
2023-02-24T03:55:28.499Z,100.00
2023-02-24T03:58:43.034Z,100.00
2023-02-24T04:01:42.082Z,100.00
2023-02-24T04:04:27.428Z,100.00
2023-02-24T04:07:12.659Z,100.00
2023-02-24T04:09:57.185Z,100.00
2023-02-24T04:12:52.329Z,100.00
2023-02-24T04:15:32.398Z,100.00
2023-02-24T04:18:08.041Z,100.00
2023-02-24T04:20:37.226Z,100.00
2023-02-24T04:23:17.001Z,100.00
2023-02-24T04:25:49.462Z,100.00
2023-02-24T04:28:21.242Z,100.00
2023-02-24T04:31:05.809Z,100.00
2023-02-24T04:33:34.363Z,100.00
2023-02-24T04:36:02.853Z,100.00
2023-02-24T04:38:31.500Z,100.00
2023-02-24T04:40:59.791Z,100.00
2023-02-24T04:43:29.458Z,100.00
2023-02-24T04:45:57.859Z,100.00
2023-02-24T04:48:26.201Z,100.00
2023-02-24T04:50:55.279Z,100.00
2023-02-24T04:53:27.255Z,100.00
2023-02-24T04:55:56.297Z,100.00
2023-02-24T04:58:29.663Z,100.00
2023-02-24T05:00:57.984Z,100.00
2023-02-24T05:03:30.078Z,100.00
2023-02-24T05:06:00.327Z,100.00
2023-02-24T05:08:30.933Z,100.00
2023-02-24T05:11:03.902Z,100.00
2023-02-24T05:13:33.830Z,100.00
2023-02-24T05:16:10.016Z,100.00
2023-02-24T05:18:38.792Z,100.00
2023-02-24T05:21:32.862Z,100.00
2023-02-24T05:24:06.533Z,100.00
2023-02-24T05:26:38.087Z,100.00
2023-02-24T05:29:07.288Z,100.00
2023-02-24T05:31:37.092Z,100.00
2023-02-24T05:34:08.136Z,100.00
2023-02-24T05:36:40.615Z,100.00
2023-02-24T05:39:12.280Z,100.00
2023-02-24T05:41:42.981Z,100.00
2023-02-24T05:44:16.096Z,100.00
2023-02-24T05:46:46.635Z,100.00
2023-02-24T05:49:26.912Z,100.00
2023-02-24T05:52:00.097Z,100.00
2023-02-24T05:54:44.130Z,100.00
2023-02-24T05:57:17.342Z,100.00
2023-02-24T05:59:46.042Z,100.00
2023-02-24T06:02:18.013Z,100.00
2023-02-24T06:04:53.905Z,100.00
2023-02-24T06:07:34.554Z,100.00
2023-02-24T06:10:07.053Z,100.00
2023-02-24T06:12:36.088Z,100.00
2023-02-24T06:15:07.746Z,100.00
2023-02-24T06:17:36.446Z,100.00
2023-02-24T06:20:15.707Z,100.00
2023-02-24T06:22:44.303Z,100.00
2023-02-24T06:25:12.712Z,100.00
2023-02-24T06:27:41.095Z,100.00
2023-02-24T06:30:10.731Z,100.00
2023-02-24T06:32:39.562Z,100.00
2023-02-24T06:35:09.238Z,100.00
2023-02-24T06:37:39.469Z,100.00
2023-02-24T06:40:17.809Z,100.00
2023-02-24T06:42:54.045Z,100.00
2023-02-24T06:45:24.422Z,100.00
2023-02-24T06:47:53.321Z,100.00
2023-02-24T06:50:21.900Z,100.00
2023-02-24T06:52:50.643Z,100.00
2023-02-24T06:55:28.384Z,100.00
2023-02-24T06:58:04.296Z,100.00
2023-02-24T07:00:40.785Z,100.00
2023-02-24T07:03:16.242Z,100.00
2023-02-24T07:05:54.195Z,100.00
2023-02-24T07:08:27.200Z,100.00
2023-02-24T07:10:58.170Z,100.00
2023-02-24T07:13:30.858Z,100.00
2023-02-24T07:16:07.435Z,100.00
2023-02-24T07:18:41.757Z,100.00
2023-02-24T07:21:11.777Z,100.00
2023-02-24T07:23:41.841Z,100.00
2023-02-24T07:26:15.714Z,100.00
2023-02-24T07:28:47.008Z,100.00
2023-02-24T07:31:19.666Z,100.00
2023-02-24T07:33:48.793Z,100.00
2023-02-24T07:36:23.095Z,100.00
2023-02-24T07:38:53.988Z,100.00
2023-02-24T07:41:26.241Z,100.00
2023-02-24T07:43:55.445Z,100.00
2023-02-24T07:46:28.115Z,100.00
2023-02-24T07:48:59.325Z,100.00
2023-02-24T07:51:29.442Z,100.00
2023-02-24T07:54:00.494Z,100.00
2023-02-24T07:56:31.123Z,100.00
2023-02-24T07:59:07.918Z,100.00
2023-02-24T08:01:40.607Z,100.00
2023-02-24T08:04:12.761Z,100.00
2023-02-24T08:06:48.127Z,100.00
2023-02-24T08:09:21.038Z,100.00
2023-02-24T08:11:55.386Z,100.00
2023-02-24T08:14:35.465Z,100.00
2023-02-24T08:17:05.521Z,100.00
2023-02-24T08:19:39.830Z,100.00
2023-02-24T08:22:20.675Z,100.00
2023-02-24T08:25:05.869Z,100.00
2023-02-24T08:27:43.064Z,100.00
2023-02-24T08:30:23.556Z,100.00
2023-02-24T08:33:00.062Z,100.00
2023-02-24T08:35:37.545Z,100.00
2023-02-24T08:38:14.512Z,100.00
2023-02-24T08:40:50.932Z,100.00
2023-02-24T08:43:40.958Z,100.00
2023-02-24T08:46:18.621Z,100.00
2023-02-24T08:48:55.463Z,100.00
2023-02-24T08:51:34.947Z,100.00
2023-02-24T08:54:15.379Z,100.00
2023-02-24T08:56:55.966Z,100.00
2023-02-24T08:59:38.016Z,100.00
2023-02-24T09:02:23.067Z,100.00
2023-02-24T09:05:03.785Z,100.00
2023-02-24T09:07:40.674Z,100.00
2023-02-24T09:10:18.206Z,100.00
2023-02-24T09:12:49.117Z,100.00
2023-02-24T09:15:17.856Z,100.00
2023-02-24T09:17:46.334Z,100.00
2023-02-24T09:20:39.132Z,100.00
2023-02-24T09:23:08.668Z,100.00
2023-02-24T09:25:44.747Z,100.00
2023-02-24T09:28:19.581Z,100.00
2023-02-24T09:31:04.855Z,100.00
2023-02-24T09:33:41.260Z,100.00
2023-02-24T09:36:28.387Z,100.00
2023-02-24T09:38:59.629Z,100.00
2023-02-24T09:42:07.608Z,100.00
2023-02-24T09:44:39.361Z,100.00
2023-02-24T09:47:51.305Z,100.00
2023-02-24T09:50:40.269Z,100.00
2023-02-24T09:53:19.999Z,100.00
2023-02-24T09:56:05.346Z,100.00
2023-02-24T09:58:47.980Z,100.00
2023-02-24T10:01:50.753Z,100.00
2023-02-24T10:04:49.271Z,100.00
2023-02-24T10:07:38.426Z,100.00
2023-02-24T10:10:36.358Z,100.00
2023-02-24T10:13:30.397Z,100.00
2023-02-24T10:16:06.981Z,100.00
2023-02-24T10:19:17.540Z,100.00
2023-02-24T10:22:02.500Z,100.00
2023-02-24T10:24:47.659Z,100.00
2023-02-24T10:27:27.221Z,100.00
2023-02-24T10:30:28.041Z,100.00
2023-02-24T10:33:02.596Z,100.00
2023-02-24T10:35:34.163Z,100.00
2023-02-24T10:38:07.135Z,100.00
2023-02-24T10:40:57.028Z,100.00
2023-02-24T10:43:30.552Z,100.00
2023-02-24T10:46:17.234Z,100.00
2023-02-24T10:49:00.652Z,100.00
2023-02-24T10:51:42.384Z,100.00
2023-02-24T10:54:48.373Z,100.00
2023-02-24T10:57:37.365Z,100.00
2023-02-24T11:00:31.133Z,100.00
2023-02-24T11:03:10.650Z,100.00
2023-02-24T11:06:04.697Z,100.00
2023-02-24T11:08:39.740Z,100.00
2023-02-24T11:11:26.099Z,100.00
2023-02-24T11:14:30.384Z,100.00
2023-02-24T11:17:17.520Z,100.00
2023-02-24T11:20:01.684Z,100.00
2023-02-24T11:22:39.538Z,100.00
2023-02-24T11:25:39.624Z,100.00
2023-02-24T11:28:55.807Z,100.00
2023-02-24T11:31:53.607Z,100.00
2023-02-24T11:34:39.227Z,100.00
2023-02-24T11:37:59.081Z,100.00
2023-02-24T11:40:36.586Z,100.00
2023-02-24T11:43:14.140Z,100.00
2023-02-24T11:45:53.473Z,100.00
2023-02-24T11:48:26.730Z,100.00
2023-02-24T11:51:20.745Z,100.00
2023-02-24T11:53:58.322Z,100.00
2023-02-24T11:56:44.213Z,100.00
2023-02-24T11:59:38.342Z,100.00
2023-02-24T12:02:35.756Z,100.00
2023-02-24T12:05:17.000Z,100.00
2023-02-24T12:07:59.229Z,100.00
2023-02-24T12:10:32.283Z,100.00
2023-02-24T12:13:19.384Z,100.00
2023-02-24T12:16:03.153Z,100.00
2023-02-24T12:18:43.617Z,100.00
2023-02-24T12:21:32.314Z,100.00
2023-02-24T12:24:02.245Z,100.00
2023-02-24T12:26:48.228Z,100.00
2023-02-24T12:29:49.906Z,100.00
2023-02-24T12:32:47.321Z,100.00
2023-02-24T12:35:33.006Z,100.00
2023-02-24T12:38:34.705Z,100.00
2023-02-24T12:41:14.755Z,100.00
2023-02-24T12:43:55.482Z,100.00
2023-02-24T12:46:38.448Z,100.00
2023-02-24T12:49:42.831Z,100.00
2023-02-24T12:52:48.109Z,100.00
2023-02-24T12:55:52.111Z,100.00
2023-02-24T12:58:26.637Z,100.00
2023-02-24T13:01:09.106Z,100.00
2023-02-24T13:04:06.942Z,100.00
2023-02-24T13:07:01.205Z,100.00
2023-02-24T13:09:51.329Z,100.00
2023-02-24T13:12:49.050Z,100.00
2023-02-24T13:15:27.325Z,100.00
2023-02-24T13:17:58.494Z,100.00
2023-02-24T13:20:38.731Z,100.00
2023-02-24T13:23:22.004Z,100.00
2023-02-24T13:25:54.041Z,99.91
2023-02-24T13:28:36.413Z,99.35
2023-02-24T13:31:13.592Z,98.52
2023-02-24T13:33:44.828Z,97.70
2023-02-24T13:36:17.037Z,97.03
2023-02-24T13:38:49.442Z,96.61
2023-02-24T13:41:40.926Z,96.29
2023-02-24T13:44:18.809Z,95.57
2023-02-24T13:47:14.610Z,95.44
2023-02-24T13:50:39.296Z,95.17
2023-02-24T13:53:23.849Z,94.78
2023-02-24T13:56:16.538Z,94.28
2023-02-24T13:59:11.297Z,94.57
2023-02-24T14:01:58.076Z,94.84
2023-02-24T14:04:36.192Z,95.15
2023-02-24T14:07:11.708Z,95.10
2023-02-24T14:09:46.722Z,95.03
2023-02-24T14:12:28.943Z,95.15
2023-02-24T14:14:58.029Z,95.03
2023-02-24T14:17:35.880Z,94.67
2023-02-24T14:20:05.206Z,94.71
2023-02-24T14:22:34.742Z,94.77
2023-02-24T14:25:09.313Z,94.78
2023-02-24T14:27:39.021Z,94.42
2023-02-24T14:30:18.975Z,94.08
2023-02-24T14:32:48.330Z,93.94
2023-02-24T14:35:49.430Z,94.27
2023-02-24T14:38:39.331Z,94.15
2023-02-24T14:41:24.693Z,93.79
2023-02-24T14:43:53.899Z,93.77
2023-02-24T14:46:24.019Z,93.66
2023-02-24T14:48:56.211Z,93.60
2023-02-24T14:51:35.510Z,93.44
2023-02-24T14:54:08.121Z,93.66
2023-02-24T14:56:37.067Z,93.73
2023-02-24T14:59:33.755Z,93.80
2023-02-24T15:02:05.534Z,94.06
2023-02-24T15:04:39.422Z,94.39
2023-02-24T15:07:17.776Z,94.61
2023-02-24T15:09:48.351Z,94.59
2023-02-24T15:12:32.184Z,94.73
2023-02-24T15:15:13.574Z,94.97
2023-02-24T15:17:42.019Z,94.99
2023-02-24T15:20:35.406Z,95.08
2023-02-24T15:23:04.408Z,95.21
2023-02-24T15:25:46.258Z,95.52
2023-02-24T15:28:34.200Z,95.97
2023-02-24T15:31:16.170Z,96.14
2023-02-24T15:33:58.119Z,96.16
2023-02-24T15:36:36.749Z,96.09
2023-02-24T15:39:17.065Z,96.30
2023-02-24T15:41:48.304Z,96.26
2023-02-24T15:44:31.842Z,96.32
2023-02-24T15:47:21.418Z,96.19
2023-02-24T15:49:50.005Z,96.04
2023-02-24T15:52:24.358Z,95.73
2023-02-24T15:54:54.347Z,95.77
2023-02-24T15:57:23.534Z,95.65
2023-02-24T15:59:52.272Z,95.91
2023-02-24T16:02:23.625Z,95.55
2023-02-24T16:04:52.430Z,95.54
2023-02-24T16:07:26.749Z,95.56
2023-02-24T16:09:57.747Z,95.86
2023-02-24T16:12:34.146Z,96.03
2023-02-24T16:15:06.820Z,96.29
2023-02-24T16:17:41.436Z,96.26
2023-02-24T16:20:18.689Z,96.08
2023-02-24T16:22:47.158Z,96.05
2023-02-24T16:25:17.012Z,96.00
2023-02-24T16:27:45.564Z,96.15
2023-02-24T16:30:22.127Z,96.33
2023-02-24T16:32:51.576Z,96.62
2023-02-24T16:35:20.271Z,96.84
2023-02-24T16:37:49.083Z,96.71
2023-02-24T16:40:30.668Z,96.94
2023-02-24T16:42:59.256Z,96.99
2023-02-24T16:45:30.704Z,97.09
2023-02-24T16:48:02.560Z,97.01
2023-02-24T16:50:40.901Z,97.00
2023-02-24T16:53:18.907Z,97.15
2023-02-24T16:55:47.618Z,96.96
2023-02-24T16:58:16.357Z,97.10
2023-02-24T17:00:49.842Z,97.19
2023-02-24T17:03:25.109Z,97.11
2023-02-24T17:05:54.595Z,97.04
2023-02-24T17:08:23.611Z,97.19
2023-02-24T17:10:52.682Z,97.40
2023-02-24T17:13:22.087Z,97.51
2023-02-24T17:15:57.309Z,97.66
2023-02-24T17:18:26.632Z,97.81
2023-02-24T17:20:55.059Z,97.76
2023-02-24T17:23:23.881Z,97.39
2023-02-24T17:26:00.204Z,97.42
2023-02-24T17:28:28.741Z,97.06
2023-02-24T17:30:57.572Z,97.11
2023-02-24T17:33:25.991Z,97.08
2023-02-24T17:35:54.341Z,97.07
2023-02-24T17:38:24.174Z,96.93
2023-02-24T17:40:52.760Z,96.48
2023-02-24T17:43:21.163Z,96.18
2023-02-24T17:45:51.698Z,96.31
2023-02-24T17:48:21.551Z,96.36
2023-02-24T17:50:50.004Z,96.60
2023-02-24T17:53:18.295Z,96.81
2023-02-24T17:56:01.840Z,96.80
2023-02-24T17:58:32.333Z,97.02
2023-02-24T18:01:05.690Z,97.60
2023-02-24T18:03:36.135Z,98.18
2023-02-24T18:06:10.215Z,98.36
2023-02-24T18:08:39.745Z,98.55
2023-02-24T18:11:16.099Z,98.83
2023-02-24T18:13:45.178Z,99.06
2023-02-24T18:16:15.343Z,98.95
2023-02-24T18:18:43.887Z,99.20
2023-02-24T18:21:12.572Z,99.10
2023-02-24T18:23:41.034Z,99.34
2023-02-24T18:26:12.197Z,99.66
2023-02-24T18:28:40.981Z,99.89
2023-02-24T18:31:12.716Z,100.00
2023-02-24T18:33:41.770Z,99.99
2023-02-24T18:36:11.180Z,100.00
2023-02-24T18:38:40.024Z,100.00
2023-02-24T18:41:15.725Z,100.00
2023-02-24T18:43:47.986Z,100.00
2023-02-24T18:46:18.578Z,100.00
2023-02-24T18:48:48.133Z,100.00
2023-02-24T18:51:22.026Z,100.00
2023-02-24T18:53:52.814Z,100.00
2023-02-24T18:56:25.699Z,100.00
2023-02-24T18:58:56.926Z,100.00
2023-02-24T19:01:41.299Z,100.00
2023-02-24T19:04:09.732Z,100.00
2023-02-24T19:06:38.083Z,100.00
2023-02-24T19:09:10.492Z,100.00
2023-02-24T19:11:40.873Z,100.00
2023-02-24T19:14:12.172Z,100.00
2023-02-24T19:16:41.116Z,100.00
2023-02-24T19:19:14.514Z,100.00
2023-02-24T19:21:45.552Z,100.00
2023-02-24T19:24:14.554Z,100.00
2023-02-24T19:26:44.483Z,100.00
2023-02-24T19:29:13.794Z,100.00
2023-02-24T19:31:42.693Z,100.00
2023-02-24T19:34:15.270Z,100.00
2023-02-24T19:36:43.668Z,100.00
2023-02-24T19:39:15.312Z,99.95
2023-02-24T19:41:44.356Z,99.52
2023-02-24T19:44:14.164Z,99.38
2023-02-24T19:46:43.135Z,99.36
2023-02-24T19:49:11.522Z,99.04
2023-02-24T19:51:40.151Z,98.93
2023-02-24T19:54:12.356Z,98.83
2023-02-24T19:56:40.769Z,98.91
2023-02-24T19:59:10.786Z,98.93
2023-02-24T20:01:39.314Z,98.94
2023-02-24T20:04:08.378Z,99.05
2023-02-24T20:06:43.472Z,98.76
2023-02-24T20:09:22.226Z,98.79
2023-02-24T20:11:51.449Z,98.65
2023-02-24T20:14:20.647Z,98.95
2023-02-24T20:16:49.152Z,98.72
2023-02-24T20:19:18.135Z,98.84
2023-02-24T20:21:47.596Z,98.93
2023-02-24T20:24:17.994Z,98.92
2023-02-24T20:26:49.668Z,98.84
2023-02-24T20:29:21.106Z,98.96
2023-02-24T20:31:49.892Z,98.79
2023-02-24T20:34:18.472Z,99.01
2023-02-24T20:36:46.880Z,98.95
2023-02-24T20:39:15.557Z,99.02
2023-02-24T20:41:44.185Z,99.15
2023-02-24T20:44:12.902Z,99.13
2023-02-24T20:46:41.493Z,98.97
2023-02-24T20:49:14.686Z,99.03
2023-02-24T20:51:44.014Z,98.91
2023-02-24T20:54:13.725Z,98.91
2023-02-24T20:56:45.470Z,98.90
2023-02-24T20:59:21.979Z,98.82
2023-02-24T21:01:51.065Z,98.86
2023-02-24T21:04:21.662Z,98.98
2023-02-24T21:06:51.979Z,98.93
2023-02-24T21:09:20.441Z,99.13
2023-02-24T21:11:48.847Z,99.18
2023-02-24T21:14:17.645Z,99.20
2023-02-24T21:16:46.306Z,99.29
2023-02-24T21:19:15.067Z,99.26
2023-02-24T21:21:43.445Z,99.19
2023-02-24T21:24:12.087Z,99.21
2023-02-24T21:26:40.531Z,99.17
2023-02-24T21:29:08.890Z,99.07
2023-02-24T21:31:37.468Z,99.02
2023-02-24T21:34:06.323Z,98.99
2023-02-24T21:36:36.083Z,99.01
2023-02-24T21:39:06.361Z,99.14
2023-02-24T21:41:37.510Z,99.20
2023-02-24T21:44:06.019Z,99.26
2023-02-24T21:46:34.515Z,99.26
2023-02-24T21:49:03.280Z,99.44
2023-02-24T21:51:31.673Z,99.51
2023-02-24T21:54:00.865Z,99.29
2023-02-24T21:56:30.448Z,99.41
2023-02-24T21:59:03.002Z,99.29
2023-02-24T22:01:50.022Z,99.37
2023-02-24T22:04:19.225Z,99.45
2023-02-24T22:06:50.340Z,99.36
2023-02-24T22:09:19.855Z,99.56
2023-02-24T22:11:50.134Z,99.65
2023-02-24T22:14:19.074Z,99.65
2023-02-24T22:16:47.823Z,99.58
2023-02-24T22:19:16.426Z,99.49
2023-02-24T22:21:45.156Z,99.69
2023-02-24T22:24:16.277Z,99.75
2023-02-24T22:26:45.110Z,99.86
2023-02-24T22:29:13.708Z,99.87
2023-02-24T22:31:43.758Z,99.87
2023-02-24T22:34:14.342Z,99.94
2023-02-24T22:36:42.922Z,99.92
2023-02-24T22:39:16.549Z,99.97
2023-02-24T22:41:46.817Z,100.00
2023-02-24T22:44:19.140Z,99.98
2023-02-24T22:46:48.364Z,100.00
2023-02-24T22:49:17.210Z,100.00
2023-02-24T22:51:45.832Z,100.00
2023-02-24T22:54:14.774Z,100.00
2023-02-24T22:56:43.438Z,100.00
2023-02-24T22:59:12.335Z,99.97
2023-02-24T23:01:42.671Z,99.95
2023-02-24T23:04:18.115Z,99.95
2023-02-24T23:06:47.558Z,99.98
2023-02-24T23:09:19.775Z,99.81
2023-02-24T23:11:48.462Z,99.91
2023-02-24T23:14:17.482Z,99.93
2023-02-24T23:16:53.396Z,99.72
2023-02-24T23:19:22.927Z,99.13
2023-02-24T23:21:53.614Z,99.04
2023-02-24T23:24:22.303Z,98.94
2023-02-24T23:26:54.239Z,98.87
2023-02-24T23:29:24.409Z,99.07
2023-02-24T23:31:53.815Z,99.18
2023-02-24T23:34:22.277Z,99.26
2023-02-24T23:36:50.783Z,99.45
2023-02-24T23:39:23.866Z,99.46
2023-02-24T23:41:57.501Z,99.29
2023-02-24T23:44:26.312Z,99.50
2023-02-24T23:46:54.953Z,99.65
2023-02-24T23:49:23.997Z,99.61
2023-02-24T23:51:52.348Z,99.57
2023-02-24T23:54:20.761Z,99.58
2023-02-24T23:56:49.163Z,99.54
2023-02-24T23:59:17.568Z,99.67
